Aviation Digital Data Service (ADDS)

Output produced by METARs form (2342 UTC 25 August 2016)
found at http://aviationweather.gov/adds/metars/
 
KAEX 252322Z 2600/2624 VRB04KT P6SM -RA SCT050 BKN120 
     FM260100 00000KT P6SM FEW050 BKN150 
     FM260800 00000KT 5SM BR FEW015 
     FM261400 09004KT P6SM FEW020 
     FM261900 08007KT P6SM VCTS FEW025CB SCT035